sensor_id;sensor_type;location;lat;lon;timestamp;temperature;humidity
39079;DHT22;24829;49.208;12.080;2023-11-22T00:02:00;4.10;99.90
39079;DHT22;24829;49.208;12.080;2023-11-22T00:04:25;4.00;99.90
39079;DHT22;24829;49.208;12.080;2023-11-22T00:06:51;4.10;99.90
39079;DHT22;24829;49.208;12.080;2023-11-22T00:09:16;4.10;99.90
39079;DHT22;24829;49.208;12.080;2023-11-22T00:11:47;4.10;99.90
39079;DHT22;24829;49.208;12.080;2023-11-22T00:14:13;4.10;99.90
39079;DHT22;24829;49.208;12.080;2023-11-22T00:16:38;4.10;99.90
39079;DHT22;24829;49.208;12.080;2023-11-22T00:19:05;4.10;99.90
39079;DHT22;24829;49.208;12.080;2023-11-22T00:21:32;4.00;99.90
39079;DHT22;24829;49.208;12.080;2023-11-22T00:23:57;4.00;99.90
39079;DHT22;24829;49.208;12.080;2023-11-22T00:26:23;4.00;99.90
39079;DHT22;24829;49.208;12.080;2023-11-22T00:28:49;4.00;99.90
39079;DHT22;24829;49.208;12.080;2023-11-22T00:31:15;4.00;99.90
39079;DHT22;24829;49.208;12.080;2023-11-22T00:33:40;4.00;99.90
39079;DHT22;24829;49.208;12.080;2023-11-22T00:36:06;4.00;99.90
39079;DHT22;24829;49.208;12.080;2023-11-22T00:38:34;4.00;99.90
39079;DHT22;24829;49.208;12.080;2023-11-22T00:41:01;4.00;99.90
39079;DHT22;24829;49.208;12.080;2023-11-22T00:43:27;4.00;99.90
39079;DHT22;24829;49.208;12.080;2023-11-22T00:45:53;4.00;99.90
39079;DHT22;24829;49.208;12.080;2023-11-22T00:48:19;4.00;99.90
39079;DHT22;24829;49.208;12.080;2023-11-22T00:50:44;4.00;99.90
39079;DHT22;24829;49.208;12.080;2023-11-22T00:53:10;4.00;99.90
39079;DHT22;24829;49.208;12.080;2023-11-22T00:55:36;3.90;99.90
39079;DHT22;24829;49.208;12.080;2023-11-22T00:58:01;3.90;99.90
39079;DHT22;24829;49.208;12.080;2023-11-22T01:00:30;3.90;99.90
39079;DHT22;24829;49.208;12.080;2023-11-22T01:02:56;3.90;99.90
39079;DHT22;24829;49.208;12.080;2023-11-22T01:05:21;3.90;99.90
39079;DHT22;24829;49.208;12.080;2023-11-22T01:07:48;3.90;99.90
39079;DHT22;24829;49.208;12.080;2023-11-22T01:10:13;3.90;99.90
39079;DHT22;24829;49.208;12.080;2023-11-22T01:12:39;3.90;99.90
39079;DHT22;24829;49.208;12.080;2023-11-22T01:15:05;3.90;99.90
39079;DHT22;24829;49.208;12.080;2023-11-22T01:17:31;3.90;99.90
39079;DHT22;24829;49.208;12.080;2023-11-22T01:19:56;3.80;99.90
39079;DHT22;24829;49.208;12.080;2023-11-22T01:22:24;3.80;99.90
39079;DHT22;24829;49.208;12.080;2023-11-22T01:24:49;3.90;99.90
39079;DHT22;24829;49.208;12.080;2023-11-22T01:27:15;3.80;99.90
39079;DHT22;24829;49.208;12.080;2023-11-22T01:29:40;3.80;99.90
39079;DHT22;24829;49.208;12.080;2023-11-22T01:32:07;3.90;99.90
39079;DHT22;24829;49.208;12.080;2023-11-22T01:34:34;3.80;99.90
39079;DHT22;24829;49.208;12.080;2023-11-22T01:37:00;3.80;99.90
39079;DHT22;24829;49.208;12.080;2023-11-22T01:39:25;3.70;99.90
39079;DHT22;24829;49.208;12.080;2023-11-22T01:41:52;3.80;99.90
39079;DHT22;24829;49.208;12.080;2023-11-22T01:44:17;3.70;99.90
39079;DHT22;24829;49.208;12.080;2023-11-22T01:46:46;3.70;99.90
39079;DHT22;24829;49.208;12.080;2023-11-22T01:49:12;3.70;99.90
39079;DHT22;24829;49.208;12.080;2023-11-22T01:51:39;3.70;99.90
39079;DHT22;24829;49.208;12.080;2023-11-22T01:54:07;3.70;99.90
39079;DHT22;24829;49.208;12.080;2023-11-22T01:56:35;3.70;99.90
39079;DHT22;24829;49.208;12.080;2023-11-22T01:59:03;3.60;99.90
39079;DHT22;24829;49.208;12.080;2023-11-22T02:01:30;3.60;99.90
39079;DHT22;24829;49.208;12.080;2023-11-22T02:03:57;3.60;99.90
39079;DHT22;24829;49.208;12.080;2023-11-22T02:06:23;3.50;99.90
39079;DHT22;24829;49.208;12.080;2023-11-22T02:08:49;3.50;99.90
39079;DHT22;24829;49.208;12.080;2023-11-22T02:11:17;3.50;99.90
39079;DHT22;24829;49.208;12.080;2023-11-22T02:13:50;3.50;99.90
39079;DHT22;24829;49.208;12.080;2023-11-22T02:16:19;3.50;99.90
39079;DHT22;24829;49.208;12.080;2023-11-22T02:18:45;3.50;99.90
39079;DHT22;24829;49.208;12.080;2023-11-22T02:21:11;3.50;99.90
39079;DHT22;24829;49.208;12.080;2023-11-22T02:23:37;3.50;99.90
39079;DHT22;24829;49.208;12.080;2023-11-22T02:26:02;3.50;99.90
39079;DHT22;24829;49.208;12.080;2023-11-22T02:28:28;3.50;99.90
39079;DHT22;24829;49.208;12.080;2023-11-22T02:30:54;3.50;99.90
39079;DHT22;24829;49.208;12.080;2023-11-22T02:33:20;3.50;99.90
39079;DHT22;24829;49.208;12.080;2023-11-22T02:35:45;3.50;99.90
39079;DHT22;24829;49.208;12.080;2023-11-22T02:38:11;3.50;99.90
39079;DHT22;24829;49.208;12.080;2023-11-22T02:40:37;3.50;99.90
39079;DHT22;24829;49.208;12.080;2023-11-22T02:43:03;3.40;99.90
39079;DHT22;24829;49.208;12.080;2023-11-22T02:45:33;3.40;99.90
39079;DHT22;24829;49.208;12.080;2023-11-22T02:47:58;3.40;99.90
39079;DHT22;24829;49.208;12.080;2023-11-22T02:50:27;3.40;99.90
39079;DHT22;24829;49.208;12.080;2023-11-22T02:52:52;3.40;99.90
39079;DHT22;24829;49.208;12.080;2023-11-22T02:55:18;3.30;99.90
39079;DHT22;24829;49.208;12.080;2023-11-22T02:57:45;3.40;99.90
39079;DHT22;24829;49.208;12.080;2023-11-22T03:00:11;3.40;99.90
39079;DHT22;24829;49.208;12.080;2023-11-22T03:02:40;3.40;99.90
39079;DHT22;24829;49.208;12.080;2023-11-22T03:05:10;3.30;99.90
39079;DHT22;24829;49.208;12.080;2023-11-22T03:07:37;3.30;99.90
39079;DHT22;24829;49.208;12.080;2023-11-22T03:10:03;3.40;99.90
39079;DHT22;24829;49.208;12.080;2023-11-22T03:12:28;3.40;99.90
39079;DHT22;24829;49.208;12.080;2023-11-22T03:14:54;3.30;99.90
39079;DHT22;24829;49.208;12.080;2023-11-22T03:17:24;3.30;99.90
39079;DHT22;24829;49.208;12.080;2023-11-22T03:19:49;3.30;99.90
39079;DHT22;24829;49.208;12.080;2023-11-22T03:22:15;3.30;99.90
39079;DHT22;24829;49.208;12.080;2023-11-22T03:24:41;3.20;99.90
39079;DHT22;24829;49.208;12.080;2023-11-22T03:27:06;3.20;99.90
39079;DHT22;24829;49.208;12.080;2023-11-22T03:29:32;3.20;99.90
39079;DHT22;24829;49.208;12.080;2023-11-22T03:31:59;3.20;99.90
39079;DHT22;24829;49.208;12.080;2023-11-22T03:34:24;3.20;99.90
39079;DHT22;24829;49.208;12.080;2023-11-22T03:36:50;3.20;99.90
39079;DHT22;24829;49.208;12.080;2023-11-22T03:39:16;3.20;99.90
39079;DHT22;24829;49.208;12.080;2023-11-22T03:41:42;3.20;99.90
39079;DHT22;24829;49.208;12.080;2023-11-22T03:44:08;3.20;99.90
39079;DHT22;24829;49.208;12.080;2023-11-22T03:46:35;3.20;99.90
39079;DHT22;24829;49.208;12.080;2023-11-22T03:49:02;3.20;99.90
39079;DHT22;24829;49.208;12.080;2023-11-22T03:51:28;3.20;99.90
39079;DHT22;24829;49.208;12.080;2023-11-22T03:53:54;3.20;99.90
39079;DHT22;24829;49.208;12.080;2023-11-22T03:56:19;3.20;99.90
39079;DHT22;24829;49.208;12.080;2023-11-22T03:58:45;3.10;99.90
39079;DHT22;24829;49.208;12.080;2023-11-22T04:01:11;3.20;99.90
39079;DHT22;24829;49.208;12.080;2023-11-22T04:03:36;3.20;99.90
39079;DHT22;24829;49.208;12.080;2023-11-22T04:06:02;3.10;99.90
39079;DHT22;24829;49.208;12.080;2023-11-22T04:08:28;3.10;99.90
39079;DHT22;24829;49.208;12.080;2023-11-22T04:10:53;3.00;99.90
39079;DHT22;24829;49.208;12.080;2023-11-22T04:13:19;3.00;99.90
39079;DHT22;24829;49.208;12.080;2023-11-22T04:15:45;3.00;99.90
39079;DHT22;24829;49.208;12.080;2023-11-22T04:18:10;3.00;99.90
39079;DHT22;24829;49.208;12.080;2023-11-22T04:20:36;3.00;99.90
39079;DHT22;24829;49.208;12.080;2023-11-22T04:23:01;2.90;99.90
39079;DHT22;24829;49.208;12.080;2023-11-22T04:25:27;2.90;99.90
39079;DHT22;24829;49.208;12.080;2023-11-22T04:27:52;2.90;99.90
39079;DHT22;24829;49.208;12.080;2023-11-22T04:30:18;2.90;99.90
39079;DHT22;24829;49.208;12.080;2023-11-22T04:32:44;2.90;99.90
39079;DHT22;24829;49.208;12.080;2023-11-22T04:35:13;2.90;99.90
39079;DHT22;24829;49.208;12.080;2023-11-22T04:37:39;2.80;99.90
39079;DHT22;24829;49.208;12.080;2023-11-22T04:40:05;2.80;99.90
39079;DHT22;24829;49.208;12.080;2023-11-22T04:42:34;2.70;99.90
39079;DHT22;24829;49.208;12.080;2023-11-22T04:45:01;2.70;99.90
39079;DHT22;24829;49.208;12.080;2023-11-22T04:47:27;2.70;99.90
39079;DHT22;24829;49.208;12.080;2023-11-22T04:49:52;2.70;99.90
39079;DHT22;24829;49.208;12.080;2023-11-22T04:52:18;2.70;99.90
39079;DHT22;24829;49.208;12.080;2023-11-22T04:54:43;2.70;99.90
39079;DHT22;24829;49.208;12.080;2023-11-22T04:57:09;2.70;99.90
39079;DHT22;24829;49.208;12.080;2023-11-22T04:59:35;2.70;99.90
39079;DHT22;24829;49.208;12.080;2023-11-22T05:02:01;2.70;99.90
39079;DHT22;24829;49.208;12.080;2023-11-22T05:04:26;2.70;99.90
39079;DHT22;24829;49.208;12.080;2023-11-22T05:06:53;2.70;99.90
39079;DHT22;24829;49.208;12.080;2023-11-22T05:09:19;2.60;99.90
39079;DHT22;24829;49.208;12.080;2023-11-22T05:11:45;2.70;99.90
39079;DHT22;24829;49.208;12.080;2023-11-22T05:14:11;2.70;99.90
39079;DHT22;24829;49.208;12.080;2023-11-22T05:16:36;2.60;99.90
39079;DHT22;24829;49.208;12.080;2023-11-22T05:19:02;2.60;99.90
39079;DHT22;24829;49.208;12.080;2023-11-22T05:21:28;2.60;99.90
39079;DHT22;24829;49.208;12.080;2023-11-22T05:23:54;2.70;99.90
39079;DHT22;24829;49.208;12.080;2023-11-22T05:26:20;2.60;99.90
39079;DHT22;24829;49.208;12.080;2023-11-22T05:28:46;2.60;99.90
39079;DHT22;24829;49.208;12.080;2023-11-22T05:31:13;2.60;99.90
39079;DHT22;24829;49.208;12.080;2023-11-22T05:33:39;2.60;99.90
39079;DHT22;24829;49.208;12.080;2023-11-22T05:36:06;2.60;99.90
39079;DHT22;24829;49.208;12.080;2023-11-22T05:38:32;2.60;99.90
39079;DHT22;24829;49.208;12.080;2023-11-22T05:41:00;2.60;99.90
39079;DHT22;24829;49.208;12.080;2023-11-22T05:43:26;2.60;99.90
39079;DHT22;24829;49.208;12.080;2023-11-22T05:45:53;2.60;99.90
39079;DHT22;24829;49.208;12.080;2023-11-22T05:48:18;2.60;99.90
39079;DHT22;24829;49.208;12.080;2023-11-22T05:50:45;2.60;99.90
39079;DHT22;24829;49.208;12.080;2023-11-22T05:53:11;2.60;99.90
39079;DHT22;24829;49.208;12.080;2023-11-22T05:55:36;2.60;99.90
39079;DHT22;24829;49.208;12.080;2023-11-22T05:58:03;2.60;99.90
39079;DHT22;24829;49.208;12.080;2023-11-22T06:00:29;2.60;99.90
39079;DHT22;24829;49.208;12.080;2023-11-22T06:02:55;2.60;99.90
39079;DHT22;24829;49.208;12.080;2023-11-22T06:05:21;2.60;99.90
39079;DHT22;24829;49.208;12.080;2023-11-22T06:07:47;2.50;99.90
39079;DHT22;24829;49.208;12.080;2023-11-22T06:10:15;2.50;99.90
39079;DHT22;24829;49.208;12.080;2023-11-22T06:12:41;2.50;99.90
39079;DHT22;24829;49.208;12.080;2023-11-22T06:15:07;2.50;99.90
39079;DHT22;24829;49.208;12.080;2023-11-22T06:17:33;2.60;99.90
39079;DHT22;24829;49.208;12.080;2023-11-22T06:19:58;2.50;99.90
39079;DHT22;24829;49.208;12.080;2023-11-22T06:22:24;2.50;99.90
39079;DHT22;24829;49.208;12.080;2023-11-22T06:24:50;2.50;99.90
39079;DHT22;24829;49.208;12.080;2023-11-22T06:27:15;2.50;99.90
39079;DHT22;24829;49.208;12.080;2023-11-22T06:29:41;2.50;99.90
39079;DHT22;24829;49.208;12.080;2023-11-22T06:32:10;2.50;99.90
39079;DHT22;24829;49.208;12.080;2023-11-22T06:34:35;2.50;99.90
39079;DHT22;24829;49.208;12.080;2023-11-22T06:37:02;2.50;99.90
39079;DHT22;24829;49.208;12.080;2023-11-22T06:39:27;2.50;99.90
39079;DHT22;24829;49.208;12.080;2023-11-22T06:41:53;2.50;99.90
39079;DHT22;24829;49.208;12.080;2023-11-22T06:44:18;2.50;99.90
39079;DHT22;24829;49.208;12.080;2023-11-22T06:46:44;2.50;99.90
39079;DHT22;24829;49.208;12.080;2023-11-22T06:49:10;2.50;99.90
39079;DHT22;24829;49.208;12.080;2023-11-22T06:51:35;2.50;99.90
39079;DHT22;24829;49.208;12.080;2023-11-22T06:54:01;2.50;99.90
39079;DHT22;24829;49.208;12.080;2023-11-22T06:56:26;2.50;99.90
39079;DHT22;24829;49.208;12.080;2023-11-22T06:58:53;2.50;99.90
39079;DHT22;24829;49.208;12.080;2023-11-22T07:01:23;2.50;99.90
39079;DHT22;24829;49.208;12.080;2023-11-22T07:03:49;2.50;99.90
39079;DHT22;24829;49.208;12.080;2023-11-22T07:06:14;2.50;99.90
39079;DHT22;24829;49.208;12.080;2023-11-22T07:08:40;2.50;99.90
39079;DHT22;24829;49.208;12.080;2023-11-22T07:11:06;2.50;99.90
39079;DHT22;24829;49.208;12.080;2023-11-22T07:13:35;2.50;99.90
39079;DHT22;24829;49.208;12.080;2023-11-22T07:16:04;2.50;99.90
39079;DHT22;24829;49.208;12.080;2023-11-22T07:18:30;2.50;99.90
39079;DHT22;24829;49.208;12.080;2023-11-22T07:20:56;2.40;99.90
39079;DHT22;24829;49.208;12.080;2023-11-22T07:23:22;2.40;99.90
39079;DHT22;24829;49.208;12.080;2023-11-22T07:25:52;2.50;99.90
39079;DHT22;24829;49.208;12.080;2023-11-22T07:28:18;2.50;99.90
39079;DHT22;24829;49.208;12.080;2023-11-22T07:30:44;2.50;99.90
39079;DHT22;24829;49.208;12.080;2023-11-22T07:33:10;2.60;99.90
39079;DHT22;24829;49.208;12.080;2023-11-22T07:35:36;2.60;99.90
39079;DHT22;24829;49.208;12.080;2023-11-22T07:38:02;2.60;99.90
39079;DHT22;24829;49.208;12.080;2023-11-22T07:40:29;2.50;99.90
39079;DHT22;24829;49.208;12.080;2023-11-22T07:42:54;2.50;99.90
39079;DHT22;24829;49.208;12.080;2023-11-22T07:45:20;2.50;99.90
39079;DHT22;24829;49.208;12.080;2023-11-22T07:47:46;2.50;99.90
39079;DHT22;24829;49.208;12.080;2023-11-22T07:50:12;2.50;99.90
39079;DHT22;24829;49.208;12.080;2023-11-22T07:52:38;2.50;99.90
39079;DHT22;24829;49.208;12.080;2023-11-22T07:55:05;2.50;99.90
39079;DHT22;24829;49.208;12.080;2023-11-22T07:57:34;2.40;99.90
39079;DHT22;24829;49.208;12.080;2023-11-22T07:59:59;2.40;99.90
39079;DHT22;24829;49.208;12.080;2023-11-22T08:02:26;2.50;99.90
39079;DHT22;24829;49.208;12.080;2023-11-22T08:04:52;2.50;99.90
39079;DHT22;24829;49.208;12.080;2023-11-22T08:07:18;2.50;99.90
39079;DHT22;24829;49.208;12.080;2023-11-22T08:09:44;2.50;99.90
39079;DHT22;24829;49.208;12.080;2023-11-22T08:12:10;2.50;99.90
39079;DHT22;24829;49.208;12.080;2023-11-22T08:14:38;2.60;99.90
39079;DHT22;24829;49.208;12.080;2023-11-22T08:17:05;2.60;99.90
39079;DHT22;24829;49.208;12.080;2023-11-22T08:19:31;2.60;99.90
39079;DHT22;24829;49.208;12.080;2023-11-22T08:21:57;2.60;99.90
39079;DHT22;24829;49.208;12.080;2023-11-22T08:24:23;2.60;99.90
39079;DHT22;24829;49.208;12.080;2023-11-22T08:26:48;2.60;99.90
39079;DHT22;24829;49.208;12.080;2023-11-22T08:29:14;2.60;99.90
39079;DHT22;24829;49.208;12.080;2023-11-22T08:31:40;2.60;99.90
39079;DHT22;24829;49.208;12.080;2023-11-22T08:34:06;2.60;99.90
39079;DHT22;24829;49.208;12.080;2023-11-22T08:36:33;2.60;99.90
39079;DHT22;24829;49.208;12.080;2023-11-22T08:39:00;2.60;99.90
39079;DHT22;24829;49.208;12.080;2023-11-22T08:41:27;2.60;99.90
39079;DHT22;24829;49.208;12.080;2023-11-22T08:43:54;2.60;99.90
39079;DHT22;24829;49.208;12.080;2023-11-22T08:46:20;2.60;99.90
39079;DHT22;24829;49.208;12.080;2023-11-22T08:48:47;2.60;99.90
39079;DHT22;24829;49.208;12.080;2023-11-22T08:51:13;2.50;99.90
39079;DHT22;24829;49.208;12.080;2023-11-22T08:53:38;2.60;99.90
39079;DHT22;24829;49.208;12.080;2023-11-22T08:56:04;2.60;99.90
39079;DHT22;24829;49.208;12.080;2023-11-22T08:58:31;2.60;99.90
39079;DHT22;24829;49.208;12.080;2023-11-22T09:00:56;2.60;99.90
39079;DHT22;24829;49.208;12.080;2023-11-22T09:03:23;2.60;99.90
39079;DHT22;24829;49.208;12.080;2023-11-22T09:05:49;2.70;99.90
39079;DHT22;24829;49.208;12.080;2023-11-22T09:08:15;2.60;99.90
39079;DHT22;24829;49.208;12.080;2023-11-22T09:10:41;2.50;99.90
39079;DHT22;24829;49.208;12.080;2023-11-22T09:13:08;2.50;99.90
39079;DHT22;24829;49.208;12.080;2023-11-22T09:15:34;2.50;99.90
39079;DHT22;24829;49.208;12.080;2023-11-22T09:18:00;2.60;99.90
39079;DHT22;24829;49.208;12.080;2023-11-22T09:20:26;2.70;99.90
39079;DHT22;24829;49.208;12.080;2023-11-22T09:22:54;2.70;99.90
39079;DHT22;24829;49.208;12.080;2023-11-22T09:25:20;2.70;99.90
39079;DHT22;24829;49.208;12.080;2023-11-22T09:27:47;2.70;99.90
39079;DHT22;24829;49.208;12.080;2023-11-22T09:30:14;2.60;99.90
39079;DHT22;24829;49.208;12.080;2023-11-22T09:33:00;2.70;99.90
39079;DHT22;24829;49.208;12.080;2023-11-22T09:35:27;2.70;99.90
39079;DHT22;24829;49.208;12.080;2023-11-22T09:37:58;2.70;99.90
39079;DHT22;24829;49.208;12.080;2023-11-22T09:40:24;2.70;99.90
39079;DHT22;24829;49.208;12.080;2023-11-22T09:42:52;2.70;99.90
39079;DHT22;24829;49.208;12.080;2023-11-22T09:45:19;2.60;99.90
39079;DHT22;24829;49.208;12.080;2023-11-22T09:47:46;2.60;99.90
39079;DHT22;24829;49.208;12.080;2023-11-22T09:50:17;2.60;99.90
39079;DHT22;24829;49.208;12.080;2023-11-22T09:52:49;2.50;99.90
39079;DHT22;24829;49.208;12.080;2023-11-22T09:55:15;2.60;99.90
39079;DHT22;24829;49.208;12.080;2023-11-22T09:57:41;2.60;99.90
39079;DHT22;24829;49.208;12.080;2023-11-22T10:00:09;2.60;99.90
39079;DHT22;24829;49.208;12.080;2023-11-22T10:02:41;2.60;99.90
39079;DHT22;24829;49.208;12.080;2023-11-22T10:05:07;2.60;99.90
39079;DHT22;24829;49.208;12.080;2023-11-22T10:07:37;2.60;99.90
39079;DHT22;24829;49.208;12.080;2023-11-22T10:10:04;2.60;99.90
39079;DHT22;24829;49.208;12.080;2023-11-22T10:12:30;2.60;99.90
39079;DHT22;24829;49.208;12.080;2023-11-22T10:15:11;2.60;99.90
39079;DHT22;24829;49.208;12.080;2023-11-22T10:17:37;2.60;99.90
39079;DHT22;24829;49.208;12.080;2023-11-22T10:20:03;2.60;99.90
39079;DHT22;24829;49.208;12.080;2023-11-22T10:22:29;2.50;99.90
39079;DHT22;24829;49.208;12.080;2023-11-22T10:24:58;2.50;99.90
39079;DHT22;24829;49.208;12.080;2023-11-22T10:27:26;2.40;99.90
39079;DHT22;24829;49.208;12.080;2023-11-22T10:29:51;2.40;99.90
39079;DHT22;24829;49.208;12.080;2023-11-22T10:32:17;2.40;99.90
39079;DHT22;24829;49.208;12.080;2023-11-22T10:34:43;2.30;99.90
39079;DHT22;24829;49.208;12.080;2023-11-22T10:37:09;2.30;99.90
39079;DHT22;24829;49.208;12.080;2023-11-22T10:39:35;2.30;99.90
39079;DHT22;24829;49.208;12.080;2023-11-22T10:42:03;2.30;99.90
39079;DHT22;24829;49.208;12.080;2023-11-22T10:44:32;2.30;99.90
39079;DHT22;24829;49.208;12.080;2023-11-22T10:46:59;2.30;99.90
39079;DHT22;24829;49.208;12.080;2023-11-22T10:49:26;2.20;99.90
39079;DHT22;24829;49.208;12.080;2023-11-22T10:51:52;2.20;99.90
39079;DHT22;24829;49.208;12.080;2023-11-22T10:54:19;2.10;99.90
39079;DHT22;24829;49.208;12.080;2023-11-22T10:56:46;2.10;99.90
39079;DHT22;24829;49.208;12.080;2023-11-22T10:59:15;2.10;99.90
39079;DHT22;24829;49.208;12.080;2023-11-22T11:01:47;2.00;99.90
39079;DHT22;24829;49.208;12.080;2023-11-22T11:04:26;2.00;99.90
39079;DHT22;24829;49.208;12.080;2023-11-22T11:06:54;2.10;99.90
39079;DHT22;24829;49.208;12.080;2023-11-22T11:09:23;2.10;99.90
39079;DHT22;24829;49.208;12.080;2023-11-22T11:11:58;2.10;99.90
39079;DHT22;24829;49.208;12.080;2023-11-22T11:14:24;2.10;99.90
39079;DHT22;24829;49.208;12.080;2023-11-22T11:16:51;2.10;99.90
39079;DHT22;24829;49.208;12.080;2023-11-22T11:19:20;2.10;99.90
39079;DHT22;24829;49.208;12.080;2023-11-22T11:21:50;2.20;99.90
39079;DHT22;24829;49.208;12.080;2023-11-22T11:24:17;2.20;99.90
39079;DHT22;24829;49.208;12.080;2023-11-22T11:26:52;2.20;99.90
39079;DHT22;24829;49.208;12.080;2023-11-22T11:29:36;2.20;99.90
39079;DHT22;24829;49.208;12.080;2023-11-22T11:32:10;2.20;99.90
39079;DHT22;24829;49.208;12.080;2023-11-22T11:34:49;2.30;99.90
39079;DHT22;24829;49.208;12.080;2023-11-22T11:37:18;2.40;99.90
39079;DHT22;24829;49.208;12.080;2023-11-22T11:39:45;2.50;99.90
39079;DHT22;24829;49.208;12.080;2023-11-22T11:42:11;2.60;99.90
39079;DHT22;24829;49.208;12.080;2023-11-22T11:44:51;2.60;99.90
39079;DHT22;24829;49.208;12.080;2023-11-22T11:47:27;2.60;99.90
39079;DHT22;24829;49.208;12.080;2023-11-22T11:49:54;2.70;99.90
39079;DHT22;24829;49.208;12.080;2023-11-22T11:52:20;2.80;99.90
39079;DHT22;24829;49.208;12.080;2023-11-22T11:54:46;2.80;99.90
39079;DHT22;24829;49.208;12.080;2023-11-22T11:57:11;2.80;99.90
39079;DHT22;24829;49.208;12.080;2023-11-22T11:59:37;2.80;99.90
39079;DHT22;24829;49.208;12.080;2023-11-22T12:02:03;2.90;99.90
39079;DHT22;24829;49.208;12.080;2023-11-22T12:04:31;2.80;99.90
39079;DHT22;24829;49.208;12.080;2023-11-22T12:06:58;2.90;99.90
39079;DHT22;24829;49.208;12.080;2023-11-22T12:09:27;2.90;99.90
39079;DHT22;24829;49.208;12.080;2023-11-22T12:11:55;2.90;99.90
39079;DHT22;24829;49.208;12.080;2023-11-22T12:14:23;2.90;99.90
39079;DHT22;24829;49.208;12.080;2023-11-22T12:16:52;3.00;99.90
39079;DHT22;24829;49.208;12.080;2023-11-22T12:19:24;3.00;99.90
39079;DHT22;24829;49.208;12.080;2023-11-22T12:21:51;2.90;99.90
39079;DHT22;24829;49.208;12.080;2023-11-22T12:24:17;2.90;99.90
39079;DHT22;24829;49.208;12.080;2023-11-22T12:26:46;2.90;99.90
39079;DHT22;24829;49.208;12.080;2023-11-22T12:29:15;2.90;99.90
39079;DHT22;24829;49.208;12.080;2023-11-22T12:31:48;2.90;99.90
39079;DHT22;24829;49.208;12.080;2023-11-22T12:34:17;3.00;99.90
39079;DHT22;24829;49.208;12.080;2023-11-22T12:36:43;3.00;99.90
39079;DHT22;24829;49.208;12.080;2023-11-22T12:39:09;3.00;99.90
39079;DHT22;24829;49.208;12.080;2023-11-22T12:41:47;3.00;99.90
39079;DHT22;24829;49.208;12.080;2023-11-22T12:44:13;3.00;99.90
39079;DHT22;24829;49.208;12.080;2023-11-22T12:47:05;3.00;99.90
39079;DHT22;24829;49.208;12.080;2023-11-22T12:49:43;2.90;99.90
39079;DHT22;24829;49.208;12.080;2023-11-22T12:52:11;2.80;99.90
39079;DHT22;24829;49.208;12.080;2023-11-22T12:54:37;2.80;99.90
39079;DHT22;24829;49.208;12.080;2023-11-22T12:57:10;2.80;99.90
39079;DHT22;24829;49.208;12.080;2023-11-22T12:59:38;2.80;99.90
39079;DHT22;24829;49.208;12.080;2023-11-22T13:02:05;2.80;99.90
39079;DHT22;24829;49.208;12.080;2023-11-22T13:04:32;2.70;99.90
39079;DHT22;24829;49.208;12.080;2023-11-22T13:06:59;2.70;99.90
39079;DHT22;24829;49.208;12.080;2023-11-22T13:09:25;2.70;99.90
39079;DHT22;24829;49.208;12.080;2023-11-22T13:11:51;2.70;99.90
39079;DHT22;24829;49.208;12.080;2023-11-22T13:14:17;2.70;99.90
39079;DHT22;24829;49.208;12.080;2023-11-22T13:16:44;2.70;99.90
39079;DHT22;24829;49.208;12.080;2023-11-22T13:19:11;2.80;99.90
39079;DHT22;24829;49.208;12.080;2023-11-22T13:21:37;2.70;99.90
39079;DHT22;24829;49.208;12.080;2023-11-22T13:24:03;2.70;99.90
39079;DHT22;24829;49.208;12.080;2023-11-22T13:26:30;2.70;99.90
39079;DHT22;24829;49.208;12.080;2023-11-22T13:28:56;2.60;99.90
39079;DHT22;24829;49.208;12.080;2023-11-22T13:31:23;2.60;99.90
39079;DHT22;24829;49.208;12.080;2023-11-22T13:33:49;2.60;99.90
39079;DHT22;24829;49.208;12.080;2023-11-22T13:36:15;2.60;99.90
39079;DHT22;24829;49.208;12.080;2023-11-22T13:38:41;2.60;99.90
39079;DHT22;24829;49.208;12.080;2023-11-22T13:41:06;2.60;99.90
39079;DHT22;24829;49.208;12.080;2023-11-22T13:43:32;2.60;99.90
39079;DHT22;24829;49.208;12.080;2023-11-22T13:45:58;2.50;99.90
39079;DHT22;24829;49.208;12.080;2023-11-22T13:48:25;2.50;99.90
39079;DHT22;24829;49.208;12.080;2023-11-22T13:50:51;2.40;99.90
39079;DHT22;24829;49.208;12.080;2023-11-22T13:53:16;2.40;99.90
39079;DHT22;24829;49.208;12.080;2023-11-22T13:55:46;2.50;99.90
39079;DHT22;24829;49.208;12.080;2023-11-22T13:58:12;2.50;99.90
39079;DHT22;24829;49.208;12.080;2023-11-22T14:00:38;2.60;99.90
39079;DHT22;24829;49.208;12.080;2023-11-22T14:03:04;2.60;99.90
39079;DHT22;24829;49.208;12.080;2023-11-22T14:05:34;2.50;99.90
39079;DHT22;24829;49.208;12.080;2023-11-22T14:08:02;2.50;99.90
39079;DHT22;24829;49.208;12.080;2023-11-22T14:10:27;2.50;99.90
39079;DHT22;24829;49.208;12.080;2023-11-22T14:12:54;2.40;99.90
39079;DHT22;24829;49.208;12.080;2023-11-22T14:15:19;2.50;99.90
39079;DHT22;24829;49.208;12.080;2023-11-22T14:17:45;2.40;99.90
39079;DHT22;24829;49.208;12.080;2023-11-22T14:20:15;2.40;99.90
39079;DHT22;24829;49.208;12.080;2023-11-22T14:22:41;2.40;99.90
39079;DHT22;24829;49.208;12.080;2023-11-22T14:25:11;2.30;99.90
39079;DHT22;24829;49.208;12.080;2023-11-22T14:27:39;2.30;99.90
39079;DHT22;24829;49.208;12.080;2023-11-22T14:30:06;2.20;99.90
39079;DHT22;24829;49.208;12.080;2023-11-22T14:32:33;2.30;99.90
39079;DHT22;24829;49.208;12.080;2023-11-22T14:35:03;2.30;99.90
39079;DHT22;24829;49.208;12.080;2023-11-22T14:37:29;2.30;99.90
39079;DHT22;24829;49.208;12.080;2023-11-22T14:39:56;2.30;99.90
39079;DHT22;24829;49.208;12.080;2023-11-22T14:42:22;2.30;99.90
39079;DHT22;24829;49.208;12.080;2023-11-22T14:44:48;2.30;99.90
39079;DHT22;24829;49.208;12.080;2023-11-22T14:47:14;2.40;99.90
39079;DHT22;24829;49.208;12.080;2023-11-22T14:49:51;2.30;99.90
39079;DHT22;24829;49.208;12.080;2023-11-22T14:52:17;2.40;99.90
39079;DHT22;24829;49.208;12.080;2023-11-22T14:54:44;2.40;99.90
39079;DHT22;24829;49.208;12.080;2023-11-22T14:57:10;2.40;99.90
39079;DHT22;24829;49.208;12.080;2023-11-22T14:59:38;2.50;99.90
39079;DHT22;24829;49.208;12.080;2023-11-22T15:02:04;2.60;99.90
39079;DHT22;24829;49.208;12.080;2023-11-22T15:04:37;2.60;99.90
39079;DHT22;24829;49.208;12.080;2023-11-22T15:07:04;2.70;99.90
39079;DHT22;24829;49.208;12.080;2023-11-22T15:09:31;2.70;99.90
39079;DHT22;24829;49.208;12.080;2023-11-22T15:12:00;2.70;99.90
39079;DHT22;24829;49.208;12.080;2023-11-22T15:14:32;2.60;99.90
39079;DHT22;24829;49.208;12.080;2023-11-22T15:16:58;2.60;99.90
39079;DHT22;24829;49.208;12.080;2023-11-22T15:19:26;2.60;99.90
39079;DHT22;24829;49.208;12.080;2023-11-22T15:21:53;2.60;99.90
39079;DHT22;24829;49.208;12.080;2023-11-22T15:24:19;2.60;99.90
39079;DHT22;24829;49.208;12.080;2023-11-22T15:26:45;2.50;99.90
39079;DHT22;24829;49.208;12.080;2023-11-22T15:29:11;2.40;99.90